Es ist keine erhöhte Aufmerksamkeit aufgrund des Wetters notwendig.    Es gibt keine Warnungen.
Webcam Vorhersage DWD Regenradar Wetterlage NRW Blitze Wind GFS-Modell
webcam


Kleve - Düffelward SSO more information Kleve - Düffelward SSO


Goch more information Goch


Weitere Templates dieser Seite und andere Webseiten:

Meteotemplate

Awekas - Template

weather34 - Template

Wetter im Erzgebirge


te
World Weather Websites
Bo-Rox Wetter Topsites List
 

METAR-Meldungen aus der Umgebung

   
EDLV - Goch
Aktualisierung: 15-11-2019 06:50
leicht bewölkt  
leicht bewölkt  
   Wind: ONO 13 km/h
Wind: ONO 13 km/h
Temperatur: 2°C
Gefühlt: -2°C
Taupunkt: 1°C
Luftfeuchte: 93%
Luftdruck: 999 hPa
Bewölkt: leicht bewölkt
Sichtbarkeit: 6 km
Bewölkung: leicht bewölkt 1100 ft
EDLV 150550Z 06007KT 350V080 6000 FEW011 02/01 Q0999
EDLV - Emmerich
Aktualisierung: 15-11-2019 06:50
leicht bewölkt  
leicht bewölkt  
   Wind: ONO 13 km/h
Wind: ONO 13 km/h
Temperatur: 2°C
Gefühlt: -2°C
Taupunkt: 1°C
Luftfeuchte: 93%
Luftdruck: 999 hPa
Bewölkt: leicht bewölkt
Sichtbarkeit: 6 km
Bewölkung: leicht bewölkt 1100 ft
EDLV 150550Z 06007KT 350V080 6000 FEW011 02/01 Q0999
EHDL - Nijmegen
Aktualisierung: 15-11-2019 06:55
Nebel, Bewölkt  
Nebel, Bewölkt  
   Wind: NO 18.5 km/h
Wind: NO 18.5 km/h
Temperatur: 3°C
Gefühlt: -1°C
Taupunkt: 1°C
Luftfeuchte: 87%
Luftdruck: 1001 hPa
Bewölkt: Bewölkt
Sichtbarkeit: 8 km
Bewölkung: Bewölkt 1600 ft
EHDL 150555Z AUTO 05010KT 340V110 8000 BR OVC016 03/01 Q1001 WHT
EHDL - Arnhem
Aktualisierung: 15-11-2019 06:55
Nebel, Bewölkt  
Nebel, Bewölkt  
   Wind: NO 18.5 km/h
Wind: NO 18.5 km/h
Temperatur: 3°C
Gefühlt: -1°C
Taupunkt: 1°C
Luftfeuchte: 87%
Luftdruck: 1001 hPa
Bewölkt: Bewölkt
Sichtbarkeit: 8 km
Bewölkung: Bewölkt 1600 ft
EHDL 150555Z AUTO 05010KT 340V110 8000 BR OVC016 03/01 Q1001 WHT
EDLV - Kalkar
Aktualisierung: 15-11-2019 06:50
leicht bewölkt  
leicht bewölkt  
   Wind: ONO 13 km/h
Wind: ONO 13 km/h
Temperatur: 2°C
Gefühlt: -2°C
Taupunkt: 1°C
Luftfeuchte: 93%
Luftdruck: 999 hPa
Bewölkt: leicht bewölkt
Sichtbarkeit: 6 km
Bewölkung: leicht bewölkt 1100 ft
EDLV 150550Z 06007KT 350V080 6000 FEW011 02/01 Q0999
 

Script entwickelt von  Saratoga-weather.org Angepasst für das Template von  Weerstation Leuven

Sie finden Wetter-Infos dieser Station auch auf:

UK Metoffice

European Weather Network

WeatherCloud

Weather Underground

Germany Weather Network

AWEKAS

Neuwetter

Wettersektor

Von uns verwendete Ausrüstung:

Wetterstation
Davis Vantage Pro2

Wetterprogramm
Meteobridge

WetterComputer
Computer

Davis Vantage Pro2

Meteobridge

Computer